Time;durP1;ratioP1;P1;durP2;ratioP2;P2;SDS_P1;SDS_P2;PMS_P1;PMS_P2;Temp;Humidity;BMP_temperature;BMP_pressure;BME280_temperature;BME280_humidity;BME280_pressure;Samples;Min_cycle;Max_cycle;Signal;HPM_P1;HPM_P2
2021/12/11 00:16:49;;;;;;;;;;;;;;;;;;;;;
2021/12/11 01:46:42;;;;;;;5.67;5.05;;;;;;;4.50;76.15;93477.64;827349;71;31526;-79
2021/12/11 02:01:21;;;;;;;9.95;6.00;;;;;;;4.62;76.73;93475.45;827794;71;30312;-79
2021/12/11 02:16:19;;;;;;;6.15;5.55;;;;;;;4.43;77.36;93471.48;833195;71;33162;-78
2021/12/11 02:31:28;;;;;;;5.90;5.05;;;;;;;5.22;77.29;93476.36;833614;71;30745;-77
2021/12/11 02:46:21;;;;;;;9.48;5.87;;;;;;;4.60;76.24;93460.66;827766;71;32004;-76
2021/12/11 03:16:09;;;;;;;3.83;3.10;;;;;;;3.96;79.05;93434.00;827519;71;29723;-75
2021/12/11 03:31:15;;;;;;;4.03;3.58;;;;;;;4.07;80.32;93424.30;826821;71;33150;-77
2021/12/11 03:46:11;;;;;;;8.80;6.70;;;;;;;4.59;79.74;93409.23;833340;71;30310;-75
2021/12/11 04:01:23;;;;;;;5.67;5.25;;;;;;;4.84;78.41;93399.60;826777;71;33103;-79
2021/12/11 04:16:16;;;;;;;7.12;5.87;;;;;;;5.21;78.08;93427.99;833200;71;32679;-75
2021/12/11 04:31:20;;;;;;;3.98;3.58;;;;;;;5.32;76.94;93413.05;833395;71;33130;-79
2021/12/11 04:46:13;;;;;;;3.80;3.37;;;;;;;5.02;78.36;93391.05;833644;71;32226;-77
2021/12/11 05:16:12;;;;;;;3.40;3.10;;;;;;;4.06;86.58;93383.83;833377;71;30750;-77
2021/12/11 05:31:10;;;;;;;3.45;3.15;;;;;;;3.96;87.62;93393.24;827706;71;30275;-76
2021/12/11 05:46:15;;;;;;;5.60;5.10;;;;;;;4.45;88.16;93394.07;820296;71;29827;-77
2021/12/11 06:01:08;;;;;;;9.43;7.97;;;;;;;4.81;86.42;93404.07;825857;71;29997;-77
2021/12/11 06:16:15;;;;;;;11.50;9.00;;;;;;;5.15;84.80;93412.22;820325;71;32870;-78
2021/12/11 06:31:17;;;;;;;16.20;10.60;;;;;;;5.38;83.69;93428.30;818680;71;30370;-77
2021/12/11 06:46:19;;;;;;;11.43;9.53;;;;;;;5.63;82.90;93427.16;820994;71;32921;-77
2021/12/11 07:01:10;;;;;;;13.62;9.00;;;;;;;5.95;82.16;93421.77;828107;71;29722;-76
2021/12/11 07:16:14;;;;;;;11.20;9.00;;;;;;;6.23;80.16;93402.84;827099;71;32784;-78
2021/12/11 07:31:08;;;;;;;10.80;8.80;;;;;;;6.55;79.71;93389.76;828632;71;29705;-76
2021/12/11 07:46:13;;;;;;;10.82;9.35;;;;;;;7.37;77.66;93378.97;828480;71;30014;-77
2021/12/11 08:01:20;;;;;;;13.20;10.75;;;;;;;8.25;75.61;93371.15;833297;71;32755;-78
2021/12/11 08:16:08;;;;;;;17.12;11.53;;;;;;;7.03;76.93;93380.73;829903;71;29844;-77
2021/12/11 08:31:09;;;;;;;14.98;10.98;;;;;;;7.74;75.75;93373.16;818832;71;30374;-78
2021/12/11 08:46:25;;;;;;;9.38;7.40;;;;;;;7.38;74.87;93356.24;833019;71;32759;-76
2021/12/11 09:16:20;;;;;;;32.38;22.87;;;;;;;8.78;72.86;93326.41;827443;71;30366;-76
2021/12/11 09:31:17;;;;;;;32.20;19.73;;;;;;;8.84;71.79;93300.34;827634;71;29828;-76
2021/12/11 09:46:12;;;;;;;23.50;18.50;;;;;;;9.05;71.37;93297.12;833296;71;30266;-76
2021/12/11 10:01:17;;;;;;;26.85;20.65;;;;;;;9.16;70.58;93276.11;827610;71;30805;-78
2021/12/11 10:16:19;;;;;;;4.53;4.03;;;;;;;8.63;67.78;93263.53;826734;71;33297;-77
2021/12/11 10:31:34;;;;;;;5.55;4.83;;;;;;;8.35;68.53;93268.99;821470;71;32803;-78
2021/12/11 10:46:12;;;;;;;5.45;4.70;;;;;;;8.16;69.47;93244.95;820106;71;29761;-76
2021/12/11 11:01:46;;;;;;;5.35;4.20;;;;;;;8.02;70.71;93221.55;817998;71;32833;-76
2021/12/11 11:16:13;;;;;;;6.87;4.50;;;;;;;7.98;70.98;93207.55;821771;71;32102;-78
2021/12/11 11:31:12;;;;;;;5.03;4.60;;;;;;;8.01;71.34;93192.59;819058;71;30815;-77
2021/12/11 11:46:10;;;;;;;7.08;4.45;;;;;;;8.05;72.12;93158.27;827806;71;29711;-77
2021/12/11 12:01:24;;;;;;;4.05;3.65;;;;;;;7.90;72.93;93164.66;833766;71;30091;-76
2021/12/11 12:16:16;;;;;;;6.00;5.45;;;;;;;7.76;73.76;93162.70;827639;71;32676;-76
2021/12/11 12:31:21;;;;;;;6.70;6.05;;;;;;;7.67;75.46;93171.05;820509;71;33640;-78
2021/12/11 12:46:17;;;;;;;8.45;7.25;;;;;;;7.55;76.01;93165.85;819998;71;33098;-76
2021/12/11 13:01:17;;;;;;;9.33;5.58;;;;;;;7.56;78.48;93155.66;819944;71;32812;-77
2021/12/11 13:16:21;;;;;;;6.80;6.00;;;;;;;7.55;81.26;93155.41;821158;71;32749;-75
2021/12/11 13:31:18;;;;;;;7.30;6.67;;;;;;;7.53;82.93;93154.94;821485;71;33378;-76
2021/12/11 13:46:10;;;;;;;7.45;6.37;;;;;;;7.54;83.96;93139.53;833074;71;29292;-77
2021/12/11 14:01:12;;;;;;;7.95;7.10;;;;;;;7.61;84.12;93146.92;828605;71;30516;-77
2021/12/11 14:16:16;;;;;;;8.25;6.05;;;;;;;7.71;84.44;93151.86;833188;71;33221;-76
2021/12/11 14:31:11;;;;;;;8.70;7.20;;;;;;;7.73;86.11;93119.70;827533;71;30075;-77
2021/12/11 15:16:09;;;;;;;10.08;7.42;;;;;;;7.87;90.78;93128.72;823042;71;30477;-77
2021/12/11 15:32:08;;;;;;;;;;;;;;;;;;;;;
2021/12/11 15:46:36;;;;;;;9.18;7.97;;;;;;;7.99;91.47;93104.09;819712;71;32804;-79
2021/12/11 16:02:05;;;;;;;;;;;;;;;;;;;;;
2021/12/11 16:16:58;;;;;;;10.68;9.40;;;;;;;8.12;92.15;93101.64;780630;75;32952;-79
2021/12/11 16:31:19;;;;;;;8.68;7.62;;;;;;;;;;812486;71;33721;-79
2021/12/11 16:46:15;;;;;;;10.65;8.65;;;;;;;8.26;91.85;93059.15;827736;71;32748;-78
2021/12/11 17:01:31;;;;;;;9.38;8.48;;;;;;;8.17;92.56;93040.08;823774;71;31977;-79
2021/12/11 17:16:29;;;;;;;15.85;10.95;;;;;;;;;;828169;71;32039;-81
2021/12/11 17:31:34;;;;;;;20.80;12.82;;;;;;;8.34;94.09;93049.77;816691;70;32060;-79
2021/12/11 17:46:39;;;;;;;17.57;12.85;;;;;;;8.11;94.39;92995.59;827113;71;31767;-79
2021/12/11 18:47:08;;;;;;;;;;;;;;;;;;;;;
2021/12/11 20:16:29;;;;;;;3.60;3.30;;;;;;;8.57;99.33;92886.99;827288;71;30494;-81
